Time,TemperatureF,DewpointF,PressureIn,WindDirection,WindDirectionDegrees,WindSpeedMPH,WindSpeedGustMPH,Humidity,HourlyPrecipIn,Conditions,Clouds,dailyrainin,SoftwareType,DateUTC
2014-04-20 00:03:00,48.2,33.7,28.73,SSE,158,6.5,6.5,57,0.00,,,0.00,VWS V14.01,2014-04-20 05:03:00,
2014-04-20 00:08:00,48.2,33.7,28.73,SSE,158,6.3,6.3,57,0.00,,,0.00,VWS V14.01,2014-04-20 05:08:00,
2014-04-20 00:13:00,48.2,33.7,28.73,SSE,158,6.3,6.3,57,0.00,,,0.00,VWS V14.01,2014-04-20 05:13:00,
2014-04-20 00:18:00,48.2,33.7,28.73,SSE,158,6.3,6.3,57,0.00,,,0.00,VWS V14.01,2014-04-20 05:18:00,
2014-04-20 00:23:00,48.2,33.7,28.73,SSE,158,7.8,7.8,57,0.00,,,0.00,VWS V14.01,2014-04-20 05:23:00,
2014-04-20 00:29:00,48.2,33.7,28.73,SSE,158,6.5,6.5,57,0.00,,,0.00,VWS V14.01,2014-04-20 05:29:00,
2014-04-20 00:34:00,48.2,33.7,28.73,South,180,6.5,6.5,57,0.00,,,0.00,VWS V14.01,2014-04-20 05:34:00,
2014-04-20 00:39:00,48.2,33.7,28.73,SSE,158,6.3,6.3,57,0.00,,,0.00,VWS V14.01,2014-04-20 05:39:00,
2014-04-20 00:44:00,48.2,33.7,28.73,SSE,158,7.8,7.8,57,0.00,,,0.00,VWS V14.01,2014-04-20 05:44:00,
2014-04-20 00:49:00,48.2,33.7,28.73,SSE,158,5.8,5.8,57,0.00,,,0.00,VWS V14.01,2014-04-20 05:49:00,
2014-04-20 00:54:00,48.2,33.7,28.73,SSE,158,4.3,4.3,57,0.00,,,0.00,VWS V14.01,2014-04-20 05:54:00,
2014-04-20 00:59:00,48.2,33.7,28.73,SSE,158,4.9,4.9,57,0.00,,,0.00,VWS V14.01,2014-04-20 05:59:00,
2014-04-20 01:04:00,48.2,33.7,28.73,SSE,158,5.4,5.4,57,0.00,,,0.00,VWS V14.01,2014-04-20 06:04:00,
2014-04-20 01:09:00,48.2,33.7,28.73,SSE,158,5.8,5.8,57,0.00,,,0.00,VWS V14.01,2014-04-20 06:09:00,
2014-04-20 01:14:00,48.2,33.7,28.73,SSE,158,6.3,6.3,57,0.00,,,0.00,VWS V14.01,2014-04-20 06:14:00,
2014-04-20 01:19:00,48.2,33.7,28.73,SSE,158,4.9,4.9,57,0.00,,,0.00,VWS V14.01,2014-04-20 06:19:00,
2014-04-20 01:24:00,48.2,33.7,28.73,SSE,158,5.8,5.8,57,0.00,,,0.00,VWS V14.01,2014-04-20 06:24:00,
2014-04-20 01:29:00,48.2,33.7,28.73,SSE,158,5.6,5.6,57,0.00,,,0.00,VWS V14.01,2014-04-20 06:29:00,
2014-04-20 01:34:00,48.2,33.7,28.73,SSE,158,4.9,4.9,57,0.00,,,0.00,VWS V14.01,2014-04-20 06:34:00,
2014-04-20 01:39:00,48.2,33.7,28.73,South,180,4.9,4.9,57,0.00,,,0.00,VWS V14.01,2014-04-20 06:39:00,
2014-04-20 01:45:00,48.2,33.7,28.73,South,180,3.8,3.8,57,0.00,,,0.00,VWS V14.01,2014-04-20 06:45:00,
2014-04-20 01:50:00,48.2,33.7,28.73,SSE,158,5.6,5.6,57,0.00,,,0.00,VWS V14.01,2014-04-20 06:50:00,
2014-04-20 01:55:00,48.2,33.7,28.73,South,180,5.8,5.8,57,0.00,,,0.00,VWS V14.01,2014-04-20 06:55:00,
2014-04-20 02:00:00,48.2,33.7,28.73,South,180,4.3,4.3,57,0.00,,,0.00,VWS V14.01,2014-04-20 07:00:00,
2014-04-20 02:05:00,48.2,33.7,28.73,South,180,4.0,4.0,57,0.00,,,0.00,VWS V14.01,2014-04-20 07:05:00,
2014-04-20 02:10:00,48.2,33.7,28.73,South,180,5.6,5.6,57,0.00,,,0.00,VWS V14.01,2014-04-20 07:10:00,
2014-04-20 02:15:00,48.2,33.7,28.73,SSE,158,3.6,3.6,57,0.00,,,0.00,VWS V14.01,2014-04-20 07:15:00,
2014-04-20 02:20:00,48.2,33.7,28.73,SSE,158,3.6,3.6,57,0.00,,,0.00,VWS V14.01,2014-04-20 07:20:00,
2014-04-20 02:25:00,48.2,33.7,28.73,SSE,158,3.4,3.4,57,0.00,,,0.00,VWS V14.01,2014-04-20 07:25:00,
2014-04-20 02:31:00,48.2,33.7,28.73,SE,135,2.9,2.9,57,0.00,,,0.00,VWS V14.01,2014-04-20 07:31:00,
2014-04-20 02:36:00,48.2,33.7,28.73,SSE,158,3.1,3.1,57,0.00,,,0.00,VWS V14.01,2014-04-20 07:36:00,
2014-04-20 02:41:00,48.2,33.7,28.73,SSE,158,2.5,2.5,57,0.00,,,0.00,VWS V14.01,2014-04-20 07:41:00,
2014-04-20 02:46:00,48.2,33.7,28.73,SSE,158,2.5,2.5,57,0.00,,,0.00,VWS V14.01,2014-04-20 07:46:00,
2014-04-20 02:51:00,48.2,33.7,28.73,SSE,158,2.5,2.5,57,0.00,,,0.00,VWS V14.01,2014-04-20 07:51:00,
2014-04-20 02:56:00,48.2,33.7,28.73,SSE,158,3.4,3.4,57,0.00,,,0.00,VWS V14.01,2014-04-20 07:56:00,
2014-04-20 03:01:00,48.2,33.7,28.73,SSE,158,3.6,3.6,57,0.00,,,0.00,VWS V14.01,2014-04-20 08:01:00,
2014-04-20 03:06:00,48.2,33.7,28.73,SSE,158,3.4,3.4,57,0.00,,,0.00,VWS V14.01,2014-04-20 08:06:00,
2014-04-20 03:11:00,48.2,33.7,28.73,SSE,158,3.8,3.8,57,0.00,,,0.00,VWS V14.01,2014-04-20 08:11:00,
2014-04-20 03:16:00,48.2,33.7,28.73,SSE,158,3.6,3.6,57,0.00,,,0.00,VWS V14.01,2014-04-20 08:16:00,
2014-04-20 03:22:00,48.2,33.7,28.73,SSE,158,3.4,3.4,57,0.00,,,0.00,VWS V14.01,2014-04-20 08:22:00,
2014-04-20 03:27:00,48.2,33.7,28.73,SSW,202,1.6,1.6,57,0.00,,,0.33,VWS V14.01,2014-04-20 08:27:00,
2014-04-20 03:32:00,48.2,33.7,28.73,SSE,158,2.7,2.7,57,0.00,,,0.00,VWS V14.01,2014-04-20 08:32:00,
2014-04-20 03:37:00,48.2,33.7,28.73,SSE,158,3.6,3.6,57,0.00,,,0.00,VWS V14.01,2014-04-20 08:37:00,
2014-04-20 03:42:00,48.2,33.7,28.73,SSE,158,3.4,3.4,57,0.00,,,0.00,VWS V14.01,2014-04-20 08:42:00,
2014-04-20 03:47:00,48.2,33.7,28.73,SSE,158,3.4,3.4,57,0.00,,,0.00,VWS V14.01,2014-04-20 08:47:00,
2014-04-20 03:52:00,48.2,33.7,28.73,SSE,158,4.0,4.0,57,0.00,,,0.00,VWS V14.01,2014-04-20 08:52:00,
2014-04-20 03:57:00,48.2,33.7,28.73,SSE,158,4.0,4.0,57,0.00,,,0.00,VWS V14.01,2014-04-20 08:57:00,
2014-04-20 04:02:00,48.2,33.7,28.73,SSE,158,5.4,5.4,57,0.00,,,0.00,VWS V14.01,2014-04-20 09:02:00,
2014-04-20 04:07:00,48.2,33.7,28.70,SSE,158,5.4,5.4,57,0.00,,,0.00,VWS V14.01,2014-04-20 09:07:00,
2014-04-20 04:13:00,48.2,33.7,28.70,SSE,158,4.3,4.3,57,0.00,,,0.00,VWS V14.01,2014-04-20 09:13:00,
2014-04-20 04:18:00,48.2,33.7,28.70,SSE,158,4.9,4.9,57,0.00,,,0.00,VWS V14.01,2014-04-20 09:18:00,
2014-04-20 04:23:00,48.2,33.7,28.70,SSE,158,4.3,4.3,57,0.00,,,0.00,VWS V14.01,2014-04-20 09:23:00,
2014-04-20 04:28:00,48.2,33.7,28.70,SSE,158,3.1,3.1,57,0.00,,,0.00,VWS V14.01,2014-04-20 09:28:00,
2014-04-20 04:33:00,48.2,33.7,28.70,SSE,158,4.0,4.0,57,0.00,,,0.00,VWS V14.01,2014-04-20 09:33:00,
2014-04-20 04:38:00,48.2,33.7,28.70,SSE,158,4.3,4.3,57,0.00,,,0.00,VWS V14.01,2014-04-20 09:38:00,
2014-04-20 04:43:00,48.2,33.7,28.70,SSE,158,3.8,3.8,57,0.00,,,0.00,VWS V14.01,2014-04-20 09:43:00,
2014-04-20 04:48:00,48.2,33.7,28.70,SSE,158,2.7,2.7,57,0.00,,,0.00,VWS V14.01,2014-04-20 09:48:00,
2014-04-20 04:53:00,48.2,33.7,28.70,SSE,158,4.3,4.3,57,0.00,,,0.00,VWS V14.01,2014-04-20 09:53:00,
2014-04-20 04:58:00,48.2,33.7,28.70,SSE,158,5.4,5.4,57,0.00,,,0.00,VWS V14.01,2014-04-20 09:58:00,
2014-04-20 05:04:00,48.2,33.7,28.70,South,180,5.8,5.8,57,0.00,,,0.00,VWS V14.01,2014-04-20 10:04:00,
2014-04-20 05:09:00,48.2,33.7,28.70,SSE,158,4.3,4.3,57,0.00,,,0.00,VWS V14.01,2014-04-20 10:09:00,
2014-04-20 05:14:00,48.2,33.7,28.70,SSE,158,5.4,5.4,57,0.00,,,0.00,VWS V14.01,2014-04-20 10:14:00,
2014-04-20 05:19:00,48.2,33.7,28.70,SSE,158,6.0,6.0,57,0.00,,,0.00,VWS V14.01,2014-04-20 10:19:00,
2014-04-20 05:24:00,48.2,33.7,28.73,SSE,158,5.4,5.4,57,0.00,,,0.00,VWS V14.01,2014-04-20 10:24:00,
2014-04-20 05:29:00,48.2,33.7,28.73,SSE,158,5.6,5.6,57,0.00,,,0.00,VWS V14.01,2014-04-20 10:29:00,
2014-04-20 05:34:00,48.2,33.7,28.73,SSE,158,6.3,6.3,57,0.00,,,0.00,VWS V14.01,2014-04-20 10:34:00,
2014-04-20 05:39:00,48.2,33.7,28.73,SSE,158,6.3,6.3,57,0.00,,,0.00,VWS V14.01,2014-04-20 10:39:00,
2014-04-20 05:44:00,48.2,33.7,28.73,SSE,158,5.8,5.8,57,0.00,,,0.00,VWS V14.01,2014-04-20 10:44:00,
2014-04-20 05:45:00,48.2,33.7,28.73,SSE,158,5.6,5.6,57,0.00,,,0.00,VWS V14.01,2014-04-20 10:45:00,
2014-04-20 05:50:00,48.2,33.7,28.73,SSE,158,4.9,4.9,57,0.00,,,0.00,VWS V14.01,2014-04-20 10:50:00,
2014-04-20 05:55:00,48.2,33.7,28.73,SSE,158,7.4,7.4,57,0.00,,,0.00,VWS V14.01,2014-04-20 10:55:00,
2014-04-20 06:00:00,48.2,33.7,28.73,SSE,158,6.3,6.3,57,0.00,,,0.00,VWS V14.01,2014-04-20 11:00:00,
2014-04-20 06:05:00,48.2,33.7,28.73,SSE,158,5.8,5.8,57,0.00,,,0.00,VWS V14.01,2014-04-20 11:05:00,
2014-04-20 06:10:00,48.2,33.7,28.73,SSE,158,5.6,5.6,57,0.00,,,0.00,VWS V14.01,2014-04-20 11:10:00,
2014-04-20 06:16:00,48.2,33.7,28.73,SSE,158,5.8,5.8,57,0.00,,,0.00,VWS V14.01,2014-04-20 11:16:00,
2014-04-20 06:21:00,48.2,33.7,28.73,SSW,202,4.7,4.7,57,0.00,,,0.00,VWS V14.01,2014-04-20 11:21:00,
2014-04-20 06:26:00,48.2,33.7,28.73,South,180,5.4,5.4,57,0.00,,,0.00,VWS V14.01,2014-04-20 11:26:00,
2014-04-20 06:31:00,48.2,33.7,28.73,SSE,158,3.6,3.6,57,0.00,,,0.00,VWS V14.01,2014-04-20 11:31:00,
2014-04-20 06:36:00,48.2,33.7,28.73,SSE,158,3.4,3.4,57,0.00,,,0.00,VWS V14.01,2014-04-20 11:36:00,
2014-04-20 06:41:00,48.2,33.7,28.73,SSE,158,3.4,3.4,57,0.00,,,0.00,VWS V14.01,2014-04-20 11:41:00,
2014-04-20 06:46:00,48.2,33.7,28.73,SSE,158,3.4,3.4,57,0.00,,,0.00,VWS V14.01,2014-04-20 11:46:00,
2014-04-20 06:51:00,48.2,33.7,28.73,SSE,158,4.0,4.0,57,0.00,,,0.00,VWS V14.01,2014-04-20 11:51:00,
2014-04-20 06:57:00,48.2,33.7,28.73,SE,135,3.4,3.4,57,0.00,,,0.00,VWS V14.01,2014-04-20 11:57:00,
2014-04-20 07:02:00,48.2,33.7,28.73,SE,135,3.6,3.6,57,0.00,,,0.00,VWS V14.01,2014-04-20 12:02:00,
2014-04-20 07:07:00,48.2,33.7,28.73,SE,135,2.9,2.9,57,0.00,,,0.00,VWS V14.01,2014-04-20 12:07:00,
2014-04-20 07:12:00,48.2,33.7,28.73,SSE,158,2.9,2.9,57,0.00,,,0.00,VWS V14.01,2014-04-20 12:12:00,
2014-04-20 07:17:00,48.2,33.7,28.73,SSE,158,3.1,3.1,57,0.00,,,0.00,VWS V14.01,2014-04-20 12:17:00,
2014-04-20 07:22:00,48.2,33.7,28.73,SSE,158,2.7,2.7,57,0.00,,,0.00,VWS V14.01,2014-04-20 12:22:00,
2014-04-20 07:27:00,48.2,33.7,28.73,SSE,158,1.6,1.6,57,0.00,,,0.00,VWS V14.01,2014-04-20 12:27:00,
2014-04-20 07:32:00,48.2,33.7,28.73,SSE,158,0.9,0.9,57,0.00,,,0.00,VWS V14.01,2014-04-20 12:32:00,
2014-04-20 07:37:00,48.2,33.7,28.76,South,180,2.7,2.7,57,0.00,,,0.00,VWS V14.01,2014-04-20 12:37:00,
2014-04-20 07:42:00,48.2,33.7,28.76,SSE,158,0.0,0.0,57,0.00,,,0.00,VWS V14.01,2014-04-20 12:42:00,
2014-04-20 07:48:00,48.2,33.7,28.76,SSE,158,2.9,2.9,57,0.00,,,0.00,VWS V14.01,2014-04-20 12:48:00,
2014-04-20 07:53:00,48.2,33.7,28.73,SSE,158,2.7,2.7,57,0.00,,,0.00,VWS V14.01,2014-04-20 12:53:00,
2014-04-20 07:58:00,48.2,33.7,28.73,SE,135,2.5,2.5,57,0.00,,,0.00,VWS V14.01,2014-04-20 12:58:00,
2014-04-20 08:03:00,48.2,33.7,28.73,SE,135,3.6,3.6,57,0.00,,,0.00,VWS V14.01,2014-04-20 13:03:00,
2014-04-20 08:08:00,48.2,33.7,28.76,SSE,158,3.4,3.4,57,0.00,,,0.00,VWS V14.01,2014-04-20 13:08:00,
2014-04-20 08:13:00,48.2,33.7,28.76,SE,135,3.6,3.6,57,0.00,,,0.00,VWS V14.01,2014-04-20 13:13:00,
2014-04-20 08:18:00,48.2,33.7,28.76,SE,135,4.0,4.0,57,0.00,,,0.00,VWS V14.01,2014-04-20 13:18:00,
2014-04-20 08:23:00,48.2,33.7,28.73,SE,135,3.4,3.4,57,0.00,,,0.00,VWS V14.01,2014-04-20 13:23:00,
2014-04-20 08:28:00,48.2,33.7,28.73,SSE,158,4.3,4.3,57,0.00,,,0.00,VWS V14.01,2014-04-20 13:28:00,
2014-04-20 08:33:00,48.2,33.7,28.73,SSE,158,4.0,4.0,57,0.00,,,0.00,VWS V14.01,2014-04-20 13:33:00,
2014-04-20 08:38:00,48.2,33.7,28.73,SSE,158,4.9,4.9,57,0.00,,,0.00,VWS V14.01,2014-04-20 13:38:00,
2014-04-20 08:44:00,48.2,33.7,28.73,SSE,158,5.6,5.6,57,0.00,,,0.00,VWS V14.01,2014-04-20 13:44:00,
2014-04-20 08:49:00,48.2,33.7,28.73,SSE,158,5.6,5.6,57,0.00,,,0.00,VWS V14.01,2014-04-20 13:49:00,
2014-04-20 08:54:00,48.2,33.7,28.73,SSE,158,7.2,7.2,57,0.00,,,0.00,VWS V14.01,2014-04-20 13:54:00,
2014-04-20 08:59:00,48.2,33.7,28.73,South,180,5.6,5.6,57,0.00,,,0.00,VWS V14.01,2014-04-20 13:59:00,
2014-04-20 09:04:00,48.2,33.7,28.73,South,180,5.4,5.4,57,0.00,,,0.00,VWS V14.01,2014-04-20 14:04:00,
2014-04-20 09:09:00,48.2,33.7,28.73,South,180,6.5,6.5,57,0.00,,,0.00,VWS V14.01,2014-04-20 14:09:00,
2014-04-20 09:14:00,48.2,33.7,28.73,SSE,158,7.8,7.8,57,0.00,,,0.00,VWS V14.01,2014-04-20 14:14:00,
2014-04-20 09:19:00,48.2,33.7,28.76,SSE,158,7.6,7.6,57,0.00,,,0.00,VWS V14.01,2014-04-20 14:19:00,
2014-04-20 09:24:00,48.2,33.7,28.76,SSE,158,5.4,5.4,57,0.00,,,0.00,VWS V14.01,2014-04-20 14:24:00,
2014-04-20 09:29:00,48.2,33.7,28.76,South,180,7.4,7.4,57,0.00,,,0.00,VWS V14.01,2014-04-20 14:29:00,
2014-04-20 09:35:00,48.2,33.7,28.73,SSE,158,7.6,7.6,57,0.00,,,0.00,VWS V14.01,2014-04-20 14:35:00,
2014-04-20 09:40:00,48.2,33.7,28.73,SSE,158,10.7,10.7,57,0.00,,,0.00,VWS V14.01,2014-04-20 14:40:00,
2014-04-20 09:45:00,48.2,33.7,28.73,SSE,158,7.4,7.4,57,0.00,,,0.00,VWS V14.01,2014-04-20 14:45:00,
2014-04-20 09:50:00,48.2,33.7,28.73,SSE,158,7.2,7.2,57,0.00,,,0.00,VWS V14.01,2014-04-20 14:50:00,
2014-04-20 09:55:00,48.2,33.7,28.73,SSE,158,7.6,7.6,57,0.00,,,0.00,VWS V14.01,2014-04-20 14:55:00,
2014-04-20 10:00:00,48.2,33.7,28.73,South,180,9.8,9.8,57,0.00,,,0.00,VWS V14.01,2014-04-20 15:00:00,
2014-04-20 10:05:00,48.2,33.7,28.73,South,180,7.4,7.4,57,0.00,,,0.00,VWS V14.01,2014-04-20 15:05:00,
2014-04-20 10:10:00,48.2,33.7,28.73,SSE,158,8.1,8.1,57,0.00,,,0.00,VWS V14.01,2014-04-20 15:10:00,
2014-04-20 10:15:00,48.2,33.7,28.73,SSE,158,7.4,7.4,57,0.00,,,0.00,VWS V14.01,2014-04-20 15:15:00,
2014-04-20 10:21:00,48.2,33.7,28.73,SSE,158,9.6,9.6,57,0.00,,,0.00,VWS V14.01,2014-04-20 15:21:00,
2014-04-20 10:26:00,48.2,33.7,28.73,SSE,158,10.5,10.5,57,0.00,,,0.00,VWS V14.01,2014-04-20 15:26:00,
2014-04-20 10:31:00,48.2,33.7,28.73,SSE,158,10.1,10.1,57,0.00,,,0.00,VWS V14.01,2014-04-20 15:31:00,
2014-04-20 10:36:00,48.2,33.7,28.73,SSE,158,11.0,11.0,57,0.00,,,0.00,VWS V14.01,2014-04-20 15:36:00,
2014-04-20 10:41:00,48.2,33.7,28.73,SSE,158,8.7,8.7,57,0.00,,,0.00,VWS V14.01,2014-04-20 15:41:00,
2014-04-20 10:46:00,48.2,33.7,28.73,SSE,158,8.7,8.7,57,0.00,,,0.00,VWS V14.01,2014-04-20 15:46:00,
2014-04-20 10:51:00,48.2,33.7,28.73,SSE,158,9.4,9.4,57,0.00,,,0.00,VWS V14.01,2014-04-20 15:51:00,
2014-04-20 10:56:00,48.2,33.7,28.73,SSW,202,7.6,7.6,57,0.00,,,0.00,VWS V14.01,2014-04-20 15:56:00,
2014-04-20 11:01:00,48.2,33.7,28.73,SSE,158,12.8,12.8,57,0.00,,,0.00,VWS V14.01,2014-04-20 16:01:00,
2014-04-20 11:07:00,48.2,33.7,28.73,South,180,7.4,7.4,57,0.00,,,0.00,VWS V14.01,2014-04-20 16:07:00,
2014-04-20 11:12:00,48.2,33.7,28.73,SSE,158,8.7,8.7,57,0.00,,,0.00,VWS V14.01,2014-04-20 16:12:00,
2014-04-20 11:17:00,48.2,33.7,28.73,SSE,158,10.7,10.7,57,0.00,,,0.00,VWS V14.01,2014-04-20 16:17:00,
2014-04-20 11:22:00,48.2,33.7,28.73,SSE,158,12.8,12.8,57,0.00,,,0.00,VWS V14.01,2014-04-20 16:22:00,
2014-04-20 11:27:00,48.2,33.7,28.73,South,180,7.8,7.8,57,0.00,,,0.00,VWS V14.01,2014-04-20 16:27:00,
2014-04-20 11:32:00,48.2,33.7,28.73,SSE,158,10.1,10.1,57,0.00,,,0.00,VWS V14.01,2014-04-20 16:32:00,
2014-04-20 11:37:00,48.2,33.7,28.76,South,180,10.5,10.5,57,0.00,,,0.00,VWS V14.01,2014-04-20 16:37:00,
2014-04-20 11:42:00,48.2,33.7,28.76,South,180,9.8,9.8,57,0.00,,,0.00,VWS V14.01,2014-04-20 16:42:00,
2014-04-20 11:48:00,48.2,33.7,28.76,SSE,158,10.1,10.1,57,0.00,,,0.00,VWS V14.01,2014-04-20 16:48:00,
2014-04-20 11:53:00,48.2,33.7,28.76,South,180,7.2,7.2,57,0.00,,,0.00,VWS V14.01,2014-04-20 16:53:00,
2014-04-20 11:58:00,48.2,33.7,28.76,South,180,8.7,8.7,57,0.00,,,0.00,VWS V14.01,2014-04-20 16:58:00,
2014-04-20 12:03:00,48.2,33.7,28.76,SSE,158,13.4,13.4,57,0.00,,,0.00,VWS V14.01,2014-04-20 17:03:00,
2014-04-20 12:08:00,48.2,33.7,28.73,South,180,5.6,5.6,57,0.00,,,0.00,VWS V14.01,2014-04-20 17:08:00,
2014-04-20 12:13:00,48.2,33.7,28.73,South,180,13.0,13.0,57,0.00,,,0.00,VWS V14.01,2014-04-20 17:13:00,
2014-04-20 12:18:00,48.2,33.7,28.73,SSW,202,10.3,10.3,57,0.00,,,0.00,VWS V14.01,2014-04-20 17:18:00,
2014-04-20 12:23:00,48.2,33.7,28.73,SSW,202,6.3,6.3,57,0.00,,,0.00,VWS V14.01,2014-04-20 17:23:00,
2014-04-20 12:28:00,48.2,33.7,28.73,SSW,202,14.8,14.8,57,0.00,,,0.00,VWS V14.01,2014-04-20 17:28:00,
2014-04-20 12:33:00,48.2,33.7,28.73,South,180,7.4,7.4,57,0.00,,,0.00,VWS V14.01,2014-04-20 17:33:00,
2014-04-20 12:38:00,48.2,33.7,28.73,SSW,202,6.3,6.3,57,0.00,,,0.00,VWS V14.01,2014-04-20 17:38:00,
2014-04-20 12:44:00,48.2,33.7,28.73,SSW,202,11.0,11.0,57,0.00,,,0.00,VWS V14.01,2014-04-20 17:44:00,
2014-04-20 12:49:00,48.2,33.7,28.73,SSW,202,8.5,8.5,57,0.00,,,0.00,VWS V14.01,2014-04-20 17:49:00,
2014-04-20 12:54:00,48.2,33.7,28.73,SW,225,12.3,12.3,57,0.00,,,0.00,VWS V14.01,2014-04-20 17:54:00,
2014-04-20 12:59:00,48.2,33.7,28.73,SSW,202,12.5,12.5,57,0.00,,,0.00,VWS V14.01,2014-04-20 17:59:00,
2014-04-20 13:04:00,48.2,33.7,28.73,South,180,8.7,8.7,57,0.00,,,0.00,VWS V14.01,2014-04-20 18:04:00,
2014-04-20 13:09:00,48.2,33.7,28.73,South,180,23.0,23.0,57,0.00,,,0.00,VWS V14.01,2014-04-20 18:09:00,
2014-04-20 13:14:00,48.2,33.7,28.73,South,180,9.8,9.8,57,0.00,,,0.00,VWS V14.01,2014-04-20 18:14:00,
2014-04-20 13:19:00,48.2,33.7,28.73,SSW,202,19.7,19.7,57,0.00,,,0.00,VWS V14.01,2014-04-20 18:19:00,
2014-04-20 13:24:00,48.2,33.7,28.73,SSW,202,13.0,13.0,57,0.00,,,0.00,VWS V14.01,2014-04-20 18:24:00,
2014-04-20 13:29:00,48.2,33.7,28.73,South,180,12.5,12.5,57,0.00,,,0.00,VWS V14.01,2014-04-20 18:29:00,
2014-04-20 13:34:00,48.2,33.7,28.73,South,180,6.9,6.9,57,0.00,,,0.00,VWS V14.01,2014-04-20 18:34:00,
2014-04-20 13:40:00,48.2,33.7,28.73,SSW,202,13.0,13.0,57,0.00,,,0.00,VWS V14.01,2014-04-20 18:40:00,
2014-04-20 13:45:00,48.2,33.7,28.73,SSE,158,16.8,16.8,57,0.00,,,0.00,VWS V14.01,2014-04-20 18:45:00,
2014-04-20 13:50:00,48.2,33.7,28.73,SSW,202,14.1,14.1,57,0.00,,,0.00,VWS V14.01,2014-04-20 18:50:00,
2014-04-20 13:55:00,48.2,33.7,28.73,SSW,202,12.3,12.3,57,0.00,,,0.00,VWS V14.01,2014-04-20 18:55:00,
2014-04-20 14:00:00,48.2,33.7,28.73,South,180,17.7,17.7,57,0.00,,,0.33,VWS V14.01,2014-04-20 19:00:00,
2014-04-20 14:05:00,48.2,33.7,28.70,South,180,17.0,17.0,57,0.00,,,0.00,VWS V14.01,2014-04-20 19:05:00,
2014-04-20 14:10:00,48.2,33.7,28.70,SSW,202,8.5,8.5,57,0.00,,,0.00,VWS V14.01,2014-04-20 19:10:00,
2014-04-20 14:15:00,48.2,33.7,28.70,SSW,202,6.0,6.0,57,0.00,,,0.00,VWS V14.01,2014-04-20 19:15:00,
2014-04-20 14:17:00,48.2,33.7,28.70,SSW,202,9.8,9.8,57,0.00,,,0.00,VWS V14.01,2014-04-20 19:17:00,
2014-04-20 14:22:00,48.2,33.7,28.73,South,180,9.8,9.8,57,0.00,,,0.00,VWS V14.01,2014-04-20 19:22:00,
2014-04-20 14:28:00,48.2,33.7,28.73,South,180,5.8,5.8,57,0.00,,,0.00,VWS V14.01,2014-04-20 19:28:00,
2014-04-20 14:33:00,48.2,33.7,28.73,SSW,202,13.2,13.2,57,0.00,,,0.00,VWS V14.01,2014-04-20 19:33:00,
2014-04-20 14:38:00,48.2,33.7,28.70,South,180,6.0,6.0,57,0.00,,,0.00,VWS V14.01,2014-04-20 19:38:00,
2014-04-20 14:43:00,48.2,33.7,28.70,SSW,202,6.5,6.5,57,0.00,,,0.00,VWS V14.01,2014-04-20 19:43:00,
2014-04-20 14:48:00,48.2,33.7,28.70,SSW,202,11.0,11.0,57,0.00,,,0.00,VWS V14.01,2014-04-20 19:48:00,
2014-04-20 14:53:00,48.2,33.7,28.70,South,180,6.3,6.3,57,0.00,,,0.00,VWS V14.01,2014-04-20 19:53:00,
2014-04-20 14:58:00,48.2,33.7,28.70,South,180,7.8,7.8,57,0.00,,,0.00,VWS V14.01,2014-04-20 19:58:00,
2014-04-20 15:03:00,48.2,33.7,28.70,South,180,12.5,12.5,57,0.00,,,0.00,VWS V14.01,2014-04-20 20:03:00,
2014-04-20 15:08:00,48.2,33.7,28.70,SSW,202,10.3,10.3,57,0.00,,,0.00,VWS V14.01,2014-04-20 20:08:00,
2014-04-20 15:14:00,48.2,33.7,28.70,SSW,202,17.2,17.2,57,0.00,,,0.00,VWS V14.01,2014-04-20 20:14:00,
2014-04-20 15:19:00,48.2,33.7,28.70,SSW,202,12.3,12.3,57,0.00,,,0.00,VWS V14.01,2014-04-20 20:19:00,
2014-04-20 15:24:00,48.2,33.7,28.70,South,180,10.5,10.5,57,0.00,,,0.00,VWS V14.01,2014-04-20 20:24:00,
2014-04-20 15:29:00,48.2,33.7,28.70,SSW,202,9.8,9.8,57,0.00,,,0.00,VWS V14.01,2014-04-20 20:29:00,
2014-04-20 15:34:00,48.2,33.7,28.70,SSW,202,6.0,6.0,57,0.00,,,0.00,VWS V14.01,2014-04-20 20:34:00,
2014-04-20 15:39:00,48.2,33.7,28.70,South,180,14.8,14.8,57,0.00,,,0.00,VWS V14.01,2014-04-20 20:39:00,
2014-04-20 15:44:00,48.2,33.7,28.70,SSW,202,13.2,13.2,57,0.00,,,0.00,VWS V14.01,2014-04-20 20:44:00,
2014-04-20 15:49:00,48.2,33.7,28.70,SSE,158,15.2,15.2,57,0.00,,,0.00,VWS V14.01,2014-04-20 20:49:00,
2014-04-20 15:55:00,48.2,33.7,28.70,SSE,158,15.7,15.7,57,0.00,,,0.00,VWS V14.01,2014-04-20 20:55:00,
2014-04-20 16:00:00,48.2,33.7,28.70,SSW,202,12.8,12.8,57,0.00,,,0.00,VWS V14.01,2014-04-20 21:00:00,
2014-04-20 16:05:00,48.2,33.7,28.70,South,180,12.8,12.8,57,0.00,,,0.00,VWS V14.01,2014-04-20 21:05:00,
2014-04-20 16:10:00,48.2,33.7,28.70,SSW,202,8.1,8.1,57,0.00,,,0.00,VWS V14.01,2014-04-20 21:10:00,
2014-04-20 16:15:00,48.2,33.7,28.70,SSE,158,12.8,12.8,57,0.00,,,0.00,VWS V14.01,2014-04-20 21:15:00,
2014-04-20 16:20:00,48.2,33.7,28.70,SSE,158,12.3,12.3,57,0.00,,,0.00,VWS V14.01,2014-04-20 21:20:00,
2014-04-20 16:25:00,48.2,33.7,28.70,SSW,202,8.7,8.7,57,0.00,,,0.00,VWS V14.01,2014-04-20 21:25:00,
2014-04-20 16:30:00,48.2,33.7,28.70,South,180,10.5,10.5,57,0.00,,,0.00,VWS V14.01,2014-04-20 21:30:00,
2014-04-20 16:35:00,48.2,33.7,28.67,South,180,5.8,5.8,57,0.00,,,0.00,VWS V14.01,2014-04-20 21:35:00,
2014-04-20 16:40:00,48.2,33.7,28.67,SSE,158,10.3,10.3,57,0.00,,,0.00,VWS V14.01,2014-04-20 21:40:00,
2014-04-20 16:45:00,48.2,33.7,28.67,SSE,158,12.8,12.8,57,0.00,,,0.00,VWS V14.01,2014-04-20 21:45:00,
2014-04-20 16:50:00,48.2,33.7,28.67,SSE,158,13.2,13.2,57,0.00,,,0.00,VWS V14.01,2014-04-20 21:50:00,
2014-04-20 16:56:00,48.2,33.7,28.67,SSE,158,12.8,12.8,57,0.00,,,0.00,VWS V14.01,2014-04-20 21:56:00,
2014-04-20 17:01:00,48.2,33.7,28.67,SSE,158,14.3,14.3,57,0.00,,,0.00,VWS V14.01,2014-04-20 22:01:00,
2014-04-20 17:06:00,48.2,33.7,28.67,South,180,7.8,7.8,57,0.00,,,0.00,VWS V14.01,2014-04-20 22:06:00,
2014-04-20 17:11:00,48.2,33.7,28.67,SSE,158,14.8,14.8,57,0.00,,,0.00,VWS V14.01,2014-04-20 22:11:00,
2014-04-20 17:16:00,48.2,33.7,28.67,SSE,158,13.0,13.0,57,0.00,,,0.00,VWS V14.01,2014-04-20 22:16:00,
2014-04-20 17:21:00,48.2,33.7,28.67,SSE,158,15.4,15.4,57,0.00,,,0.00,VWS V14.01,2014-04-20 22:21:00,
2014-04-20 17:26:00,48.2,33.7,28.67,SSE,158,17.2,17.2,57,0.00,,,0.00,VWS V14.01,2014-04-20 22:26:00,
2014-04-20 17:31:00,48.2,33.7,28.67,SSE,158,10.1,10.1,57,0.00,,,0.00,VWS V14.01,2014-04-20 22:31:00,
2014-04-20 17:37:00,48.2,33.7,28.67,SSE,158,7.6,7.6,57,0.00,,,0.00,VWS V14.01,2014-04-20 22:37:00,
2014-04-20 17:42:00,48.2,33.7,28.67,SSE,158,14.8,14.8,57,0.00,,,0.00,VWS V14.01,2014-04-20 22:42:00,
2014-04-20 17:47:00,48.2,33.7,28.67,SE,135,12.1,12.1,57,0.00,,,0.00,VWS V14.01,2014-04-20 22:47:00,
2014-04-20 17:52:00,48.2,33.7,28.64,SE,135,14.8,14.8,57,0.00,,,0.00,VWS V14.01,2014-04-20 22:52:00,
2014-04-20 17:57:00,48.2,33.7,28.64,SE,135,30.0,30.0,57,0.00,,,0.33,VWS V14.01,2014-04-20 22:57:00,
2014-04-20 18:02:00,48.2,33.7,28.64,ESE,112,17.7,17.7,57,0.00,,,0.00,VWS V14.01,2014-04-20 23:02:00,
2014-04-20 18:07:00,48.2,33.7,28.61,ESE,112,21.9,21.9,57,0.00,,,0.00,VWS V14.01,2014-04-20 23:07:00,
2014-04-20 18:12:00,48.2,33.7,28.61,SSE,158,26.0,26.0,57,0.00,,,0.00,VWS V14.01,2014-04-20 23:12:00,
2014-04-20 18:17:00,48.2,33.7,28.61,SSE,158,21.9,21.9,57,0.00,,,0.00,VWS V14.01,2014-04-20 23:17:00,
2014-04-20 18:23:00,48.2,33.7,28.58,ESE,112,22.8,22.8,57,0.00,,,0.00,VWS V14.01,2014-04-20 23:23:00,
2014-04-20 18:28:00,48.2,33.7,28.58,SE,135,12.8,12.8,57,0.00,,,0.00,VWS V14.01,2014-04-20 23:28:00,
2014-04-20 18:33:00,48.2,33.7,28.58,SSE,158,13.6,13.6,57,0.00,,,0.00,VWS V14.01,2014-04-20 23:33:00,
2014-04-20 18:38:00,48.2,33.7,28.61,South,180,13.0,13.0,57,0.00,,,0.00,VWS V14.01,2014-04-20 23:38:00,
2014-04-20 18:43:00,48.2,33.7,28.61,SSE,158,15.2,15.2,57,0.00,,,0.00,VWS V14.01,2014-04-20 23:43:00,
2014-04-20 18:48:00,48.2,33.7,28.61,SSW,202,9.4,9.4,57,0.00,,,0.00,VWS V14.01,2014-04-20 23:48:00,
2014-04-20 18:53:00,48.2,33.7,28.64,WSW,248,10.5,10.5,57,0.00,,,0.00,VWS V14.01,2014-04-20 23:53:00,
2014-04-20 18:58:00,48.2,33.7,28.64,WSW,248,7.6,7.6,57,0.00,,,0.00,VWS V14.01,2014-04-20 23:58:00,
2014-04-20 19:04:00,48.2,33.7,28.64,SSW,202,5.4,5.4,57,0.00,,,0.00,VWS V14.01,2014-04-21 00:04:00,
2014-04-20 19:09:00,48.2,33.7,28.64,SSW,202,8.5,8.5,57,0.00,,,0.00,VWS V14.01,2014-04-21 00:09:00,
2014-04-20 19:14:00,48.2,33.7,28.64,SSW,202,7.6,7.6,57,0.00,,,0.00,VWS V14.01,2014-04-21 00:14:00,
2014-04-20 19:19:00,48.2,33.7,28.67,SSW,202,7.8,7.8,57,0.00,,,0.00,VWS V14.01,2014-04-21 00:19:00,